createdAt,value
2023-01-15T00:01:36.903Z,97413.69
2023-01-15T00:04:21.915Z,97403.53
2023-01-15T00:07:07.394Z,97407.06
2023-01-15T00:09:52.909Z,97403.53
2023-01-15T00:12:38.290Z,97390.88
2023-01-15T00:15:23.593Z,97386.56
2023-01-15T00:18:08.793Z,97379.44
2023-01-15T00:21:00.009Z,97367.56
2023-01-15T00:24:03.612Z,97373.13
2023-01-15T00:27:14.997Z,97370.81
2023-01-15T00:30:00.372Z,97362.22
2023-01-15T00:32:45.848Z,97368.53
2023-01-15T00:35:31.291Z,97359.44
2023-01-15T00:38:16.588Z,97355.88
2023-01-15T00:41:02.822Z,97336.59
2023-01-15T00:43:48.076Z,97342.16
2023-01-15T00:46:33.360Z,97335.06
2023-01-15T00:49:18.796Z,97337.53
2023-01-15T00:52:04.747Z,97341.56
2023-01-15T00:54:50.078Z,97318.56
2023-01-15T00:57:35.356Z,97320.56
2023-01-15T01:00:20.993Z,97329.38
2023-01-15T01:03:06.557Z,97326.59
2023-01-15T01:05:51.768Z,97329.84
2023-01-15T01:08:37.047Z,97328.31
2023-01-15T01:11:26.223Z,97319.97
2023-01-15T01:14:13.065Z,97311.66
2023-01-15T01:16:59.410Z,97295.00
2023-01-15T01:19:45.808Z,97282.31
2023-01-15T01:22:33.487Z,97292.66
2023-01-15T01:25:21.088Z,97293.44
2023-01-15T01:28:06.562Z,97299.44
2023-01-15T01:30:52.147Z,97279.25
2023-01-15T01:33:37.364Z,97275.25
2023-01-15T01:36:31.585Z,97281.56
2023-01-15T01:39:19.421Z,97278.03
2023-01-15T01:42:11.232Z,97274.47
2023-01-15T01:45:25.083Z,97274.94
2023-01-15T01:48:10.983Z,97277.72
2023-01-15T01:50:59.445Z,97276.16
2023-01-15T01:53:45.229Z,97278.19
2023-01-15T01:56:34.699Z,97259.50
2023-01-15T01:59:24.162Z,97251.66
2023-01-15T02:02:09.506Z,97265.56
2023-01-15T02:04:54.944Z,97256.94
2023-01-15T02:07:40.983Z,97245.31
2023-01-15T02:10:27.066Z,97246.28
2023-01-15T02:13:32.206Z,97240.72
2023-01-15T02:16:34.484Z,97244.75
2023-01-15T02:19:45.052Z,97235.19
2023-01-15T02:22:53.417Z,97230.88
2023-01-15T02:25:58.197Z,97220.53
2023-01-15T02:28:49.186Z,97232.09
2023-01-15T02:31:38.684Z,97241.97
2023-01-15T02:34:32.177Z,97239.19
2023-01-15T02:37:25.865Z,97240.44
2023-01-15T02:40:13.418Z,97227.78
2023-01-15T02:43:00.095Z,97223.78
2023-01-15T02:45:52.799Z,97213.41
2023-01-15T02:48:41.587Z,97209.88
2023-01-15T02:51:37.024Z,97193.22
2023-01-15T02:54:25.277Z,97185.38
2023-01-15T02:57:13.657Z,97186.16
2023-01-15T03:00:03.745Z,97197.72
2023-01-15T03:02:59.405Z,97190.91
2023-01-15T03:06:02.244Z,97181.81
2023-01-15T03:08:48.020Z,97185.38
2023-01-15T03:11:39.131Z,97197.72
2023-01-15T03:14:40.456Z,97182.31
2023-01-15T03:17:56.072Z,97187.06
2023-01-15T03:20:49.906Z,97175.97
2023-01-15T03:23:43.219Z,97175.22
2023-01-15T03:26:28.977Z,97181.53
2023-01-15T03:29:15.607Z,97157.78
2023-01-15T03:32:01.932Z,97151.47
2023-01-15T03:34:51.321Z,97151.47
2023-01-15T03:37:38.511Z,97138.34
2023-01-15T03:40:24.019Z,97134.03
2023-01-15T03:43:34.043Z,97128.97
2023-01-15T03:46:19.874Z,97143.16
2023-01-15T03:49:19.296Z,97140.84
2023-01-15T03:52:25.154Z,97127.72
2023-01-15T03:55:30.657Z,97121.41
2023-01-15T03:58:35.463Z,97132.50
2023-01-15T04:01:32.102Z,97122.94
2023-01-15T04:04:18.494Z,97128.47
2023-01-15T04:07:04.314Z,97122.16
2023-01-15T04:09:52.136Z,97128.47
2023-01-15T04:12:37.557Z,97127.72
2023-01-15T04:15:27.438Z,97115.09
2023-01-15T04:18:12.880Z,97122.16
2023-01-15T04:20:58.567Z,97116.63
2023-01-15T04:23:43.911Z,97110.31
2023-01-15T04:26:29.179Z,97114.31
2023-01-15T04:29:14.326Z,97106.47
2023-01-15T04:31:59.657Z,97104.16
2023-01-15T04:34:44.897Z,97111.25
2023-01-15T04:37:30.165Z,97104.16
2023-01-15T04:40:35.997Z,97098.59
2023-01-15T04:43:39.852Z,97094.31
2023-01-15T04:46:25.379Z,97090.75
2023-01-15T04:49:13.710Z,97087.50
2023-01-15T04:51:59.210Z,97080.44
2023-01-15T04:54:44.352Z,97073.63
2023-01-15T04:57:29.857Z,97074.88
2023-01-15T05:00:16.057Z,97057.44
2023-01-15T05:03:01.629Z,97065.28
2023-01-15T05:05:46.838Z,97050.19
2023-01-15T05:08:34.968Z,97056.97
2023-01-15T05:11:21.762Z,97056.97
2023-01-15T05:14:07.746Z,97051.41
2023-01-15T05:16:53.316Z,97063.78
2023-01-15T05:19:38.837Z,97070.84
2023-01-15T05:22:24.086Z,97050.66
2023-01-15T05:25:09.595Z,97065.28
2023-01-15T05:27:55.129Z,97050.66
2023-01-15T05:30:40.368Z,97049.91
2023-01-15T05:33:25.796Z,97044.63
2023-01-15T05:36:14.150Z,97048.63
2023-01-15T05:39:02.122Z,97050.19
2023-01-15T05:41:50.827Z,97049.41
2023-01-15T05:44:36.528Z,97044.63
2023-01-15T05:47:21.786Z,97047.22
2023-01-15T05:50:07.494Z,97048.56
2023-01-15T05:52:53.027Z,97055.19
2023-01-15T05:55:38.548Z,97057.31
2023-01-15T05:58:24.339Z,97050.34
2023-01-15T06:01:11.648Z,97055.22
2023-01-15T06:04:01.968Z,97054.25
2023-01-15T06:06:51.905Z,97049.59
2023-01-15T06:09:37.186Z,97046.13
2023-01-15T06:12:22.406Z,97042.44
2023-01-15T06:15:08.247Z,97045.50
2023-01-15T06:17:53.700Z,97051.63
2023-01-15T06:20:42.440Z,97037.75
2023-01-15T06:23:28.031Z,97045.00
2023-01-15T06:26:17.655Z,97052.56
2023-01-15T06:29:02.987Z,97103.34
2023-01-15T06:31:49.467Z,97134.38
2023-01-15T06:34:36.358Z,97163.22
2023-01-15T06:37:21.470Z,97176.06
2023-01-15T06:40:07.367Z,97175.75
2023-01-15T06:43:11.104Z,97178.22
2023-01-15T06:46:59.650Z,97196.31
2023-01-15T06:49:44.881Z,97208.66
2023-01-15T06:52:30.476Z,97221.31
2023-01-15T06:55:15.925Z,97213.16
2023-01-15T06:58:03.755Z,97221.19
2023-01-15T07:00:55.197Z,97218.41
2023-01-15T07:03:41.336Z,97235.06
2023-01-15T07:06:26.612Z,97251.13
2023-01-15T07:09:12.509Z,97253.16
2023-01-15T07:11:58.873Z,97267.50
2023-01-15T07:14:44.791Z,97272.78
2023-01-15T07:17:30.265Z,97271.22
2023-01-15T07:20:15.987Z,97273.25
2023-01-15T07:23:01.584Z,97275.25
2023-01-15T07:25:46.843Z,97280.81
2023-01-15T07:28:32.657Z,97293.13
2023-01-15T07:31:17.974Z,97309.78
2023-01-15T07:34:03.674Z,97307.03
2023-01-15T07:36:49.261Z,97321.84
2023-01-15T07:39:34.538Z,97321.09
2023-01-15T07:42:38.300Z,97326.63
2023-01-15T07:45:42.252Z,97333.41
2023-01-15T07:48:45.872Z,97349.31
2023-01-15T07:51:31.136Z,97359.16
2023-01-15T07:54:16.332Z,97361.94
2023-01-15T07:57:02.186Z,97361.94
2023-01-15T07:59:47.974Z,97365.97
2023-01-15T08:02:33.301Z,97365.22
2023-01-15T08:05:18.795Z,97384.66
2023-01-15T08:08:04.097Z,97388.19
2023-01-15T08:11:08.105Z,97390.19
2023-01-15T08:14:11.806Z,97390.97
2023-01-15T08:16:57.349Z,97385.41
2023-01-15T08:19:42.580Z,97399.75
2023-01-15T08:22:27.842Z,97406.84
2023-01-15T08:25:15.642Z,97409.16
2023-01-15T08:28:03.276Z,97410.41
2023-01-15T08:30:48.832Z,97381.69
2023-01-15T08:33:34.357Z,97385.38
2023-01-15T08:36:19.722Z,97390.63
2023-01-15T08:39:05.300Z,97369.66
2023-01-15T08:41:50.711Z,97359.00
2023-01-15T08:44:35.830Z,97366.59
2023-01-15T08:47:21.037Z,97371.19
2023-01-15T08:50:08.765Z,97386.31
2023-01-15T08:52:54.509Z,97400.50
2023-01-15T08:55:39.865Z,97406.94
2023-01-15T08:58:29.203Z,97415.91
2023-01-15T09:01:16.250Z,97415.25
2023-01-15T09:04:02.038Z,97408.47
2023-01-15T09:06:49.106Z,97417.13
2023-01-15T09:09:34.966Z,97413.72
2023-01-15T09:12:20.122Z,97409.88
2023-01-15T09:15:06.086Z,97415.13
2023-01-15T09:17:51.494Z,97423.91
2023-01-15T09:20:36.756Z,97422.84
2023-01-15T09:23:22.419Z,97427.94
2023-01-15T09:26:08.182Z,97425.16
2023-01-15T09:28:54.037Z,97433.50
2023-01-15T09:31:39.469Z,97443.84
2023-01-15T09:34:24.675Z,97434.41
2023-01-15T09:37:10.434Z,97427.50
2023-01-15T09:39:56.004Z,97433.03
2023-01-15T09:43:02.366Z,97438.59
2023-01-15T09:46:00.361Z,97437.84
2023-01-15T09:49:14.992Z,97443.69
2023-01-15T09:52:43.760Z,97442.16
2023-01-15T09:55:33.358Z,97429.03
2023-01-15T09:58:24.181Z,97434.59
2023-01-15T10:01:17.371Z,97427.03
2023-01-15T10:04:40.163Z,97412.38
2023-01-15T10:07:38.526Z,97417.19
2023-01-15T10:10:34.243Z,97417.94
2023-01-15T10:13:31.552Z,97431.06
2023-01-15T10:16:23.710Z,97436.63
2023-01-15T10:19:10.673Z,97444.16
2023-01-15T10:22:19.930Z,97460.81
2023-01-15T10:25:14.863Z,97460.06
2023-01-15T10:28:11.591Z,97459.28
2023-01-15T10:31:06.191Z,97457.28
2023-01-15T10:34:06.236Z,97466.22
2023-01-15T10:37:00.009Z,97465.44
2023-01-15T10:39:52.964Z,97464.97
2023-01-15T10:43:14.125Z,97471.91
2023-01-15T10:46:01.756Z,97468.66
2023-01-15T10:48:57.068Z,97469.00
2023-01-15T10:51:50.218Z,97477.03
2023-01-15T10:54:40.541Z,97489.19
2023-01-15T10:58:08.948Z,97489.38
2023-01-15T11:01:01.558Z,97488.28
2023-01-15T11:03:47.578Z,97489.97
2023-01-15T11:06:33.470Z,97488.56
2023-01-15T11:09:31.171Z,97478.88
2023-01-15T11:12:28.404Z,97486.56
2023-01-15T11:15:35.429Z,97478.34
2023-01-15T11:18:48.596Z,97470.19
2023-01-15T11:21:40.593Z,97468.03
2023-01-15T11:24:26.981Z,97451.94
2023-01-15T11:27:19.486Z,97460.59
2023-01-15T11:30:07.772Z,97468.00
2023-01-15T11:32:58.789Z,97474.16
2023-01-15T11:35:58.354Z,97464.13
2023-01-15T11:38:46.545Z,97452.06
2023-01-15T11:41:53.783Z,97468.28
2023-01-15T11:44:57.526Z,97462.81
2023-01-15T11:48:12.863Z,97479.34
2023-01-15T11:51:08.096Z,97472.06
2023-01-15T11:53:58.762Z,97465.56
2023-01-15T11:56:46.027Z,97470.66
2023-01-15T11:59:32.084Z,97470.34
2023-01-15T12:02:49.193Z,97470.34
2023-01-15T12:05:36.472Z,97479.94
2023-01-15T12:08:31.409Z,97480.72
2023-01-15T12:11:38.350Z,97468.84
2023-01-15T12:14:41.299Z,97469.28
2023-01-15T12:17:42.377Z,97460.19
2023-01-15T12:20:47.857Z,97452.63
2023-01-15T12:24:27.420Z,97461.72
2023-01-15T12:27:31.558Z,97471.31
2023-01-15T12:30:28.463Z,97462.97
2023-01-15T12:33:37.331Z,97464.50
2023-01-15T12:36:38.426Z,97466.06
2023-01-15T12:39:33.477Z,97462.50
2023-01-15T12:42:41.361Z,97461.56
2023-01-15T12:45:32.142Z,97463.88
2023-01-15T12:48:29.960Z,97453.97
2023-01-15T12:51:24.402Z,97451.97
2023-01-15T12:54:18.129Z,97467.13
2023-01-15T12:57:15.412Z,97468.53
2023-01-15T13:00:30.002Z,97482.13
2023-01-15T13:03:30.621Z,97487.03
2023-01-15T13:06:18.693Z,97488.28
2023-01-15T13:09:20.663Z,97501.53
2023-01-15T13:12:14.641Z,97478.06
2023-01-15T13:15:02.118Z,97472.50
2023-01-15T13:18:12.715Z,97490.72
2023-01-15T13:21:02.320Z,97480.06
2023-01-15T13:24:14.076Z,97470.00
2023-01-15T13:27:44.165Z,97464.44
2023-01-15T13:30:47.609Z,97466.78
2023-01-15T13:33:44.028Z,97477.44
2023-01-15T13:36:40.570Z,97483.28
2023-01-15T13:39:32.257Z,97487.28
2023-01-15T13:42:37.775Z,97506.75
2023-01-15T13:45:31.223Z,97502.91
2023-01-15T13:48:20.534Z,97490.56
2023-01-15T13:51:17.269Z,97483.75
2023-01-15T13:54:03.572Z,97492.09
2023-01-15T13:56:50.572Z,97503.97
2023-01-15T13:59:44.858Z,97498.41
2023-01-15T14:02:34.567Z,97497.19
2023-01-15T14:05:23.282Z,97487.91
2023-01-15T14:08:16.668Z,97479.88
2023-01-15T14:11:03.151Z,97476.13
2023-01-15T14:14:26.146Z,97471.81
2023-01-15T14:17:33.365Z,97480.63
2023-01-15T14:20:48.933Z,97485.72
2023-01-15T14:23:59.273Z,97509.81
2023-01-15T14:27:05.257Z,97534.81
2023-01-15T14:30:12.723Z,97546.91
2023-01-15T14:33:24.889Z,97552.47
2023-01-15T14:36:20.684Z,97546.91
2023-01-15T14:39:24.363Z,97557.84
2023-01-15T14:42:40.641Z,97559.25
2023-01-15T14:45:46.606Z,97555.50
2023-01-15T14:48:32.868Z,97577.75
2023-01-15T14:51:28.656Z,97584.84
2023-01-15T14:54:18.696Z,97581.16
2023-01-15T14:57:08.451Z,97574.34
2023-01-15T15:00:04.229Z,97582.97
2023-01-15T15:02:51.013Z,97577.75
2023-01-15T15:05:36.734Z,97575.25
2023-01-15T15:08:33.062Z,97578.06
2023-01-15T15:11:46.860Z,97579.88
2023-01-15T15:14:38.547Z,97581.13
2023-01-15T15:17:33.212Z,97574.50
2023-01-15T15:20:29.993Z,97578.06
2023-01-15T15:23:48.251Z,97574.00
2023-01-15T15:26:35.245Z,97569.81
2023-01-15T15:29:22.133Z,97569.34
2023-01-15T15:32:22.112Z,97588.19
2023-01-15T15:35:30.921Z,97586.34
2023-01-15T15:38:18.933Z,97581.25
2023-01-15T15:41:12.661Z,97596.88
2023-01-15T15:44:17.887Z,97615.72
2023-01-15T15:47:37.832Z,97595.00
2023-01-15T15:50:26.985Z,97592.69
2023-01-15T15:53:18.889Z,97596.25
2023-01-15T15:56:04.460Z,97604.75
2023-01-15T15:58:50.265Z,97613.41
2023-01-15T16:01:39.584Z,97639.97
2023-01-15T16:04:25.420Z,97631.63
2023-01-15T16:07:20.990Z,97632.59
2023-01-15T16:10:13.069Z,97616.66
2023-01-15T16:13:05.046Z,97641.38
2023-01-15T16:15:56.185Z,97634.91
2023-01-15T16:18:49.786Z,97634.59
2023-01-15T16:21:37.486Z,97649.28
2023-01-15T16:24:26.680Z,97647.44
2023-01-15T16:27:22.069Z,97644.47
2023-01-15T16:30:14.795Z,97650.03
2023-01-15T16:33:06.306Z,97658.09
2023-01-15T16:36:04.901Z,97663.19
2023-01-15T16:38:51.708Z,97652.22
2023-01-15T16:41:42.536Z,97651.59
2023-01-15T16:44:30.771Z,97650.38
2023-01-15T16:47:24.600Z,97647.59
2023-01-15T16:50:22.102Z,97662.88
2023-01-15T16:53:33.295Z,97661.34
2023-01-15T16:56:40.499Z,97661.81
2023-01-15T16:59:25.844Z,97670.63
2023-01-15T17:02:15.593Z,97679.44
2023-01-15T17:05:01.667Z,97665.50
2023-01-15T17:07:50.250Z,97675.72
2023-01-15T17:10:35.612Z,97689.31
2023-01-15T17:13:22.036Z,97683.75
2023-01-15T17:16:13.708Z,97688.38
2023-01-15T17:18:59.444Z,97697.53
2023-01-15T17:21:47.553Z,97703.53
2023-01-15T17:24:34.279Z,97712.19
2023-01-15T17:27:21.171Z,97725.19
2023-01-15T17:30:06.812Z,97721.31
2023-01-15T17:32:52.066Z,97721.44
2023-01-15T17:35:41.217Z,97746.03
2023-01-15T17:38:27.317Z,97755.63
2023-01-15T17:41:17.750Z,97752.84
2023-01-15T17:44:04.133Z,97749.59
2023-01-15T17:46:49.589Z,97750.38
2023-01-15T17:49:35.272Z,97755.47
2023-01-15T17:52:21.756Z,97756.22
2023-01-15T17:55:26.275Z,97741.53
2023-01-15T17:58:34.485Z,97734.28
2023-01-15T18:01:40.953Z,97737.84
2023-01-15T18:04:53.444Z,97735.06
2023-01-15T18:07:42.551Z,97736.59
2023-01-15T18:10:28.162Z,97736.59
2023-01-15T18:13:13.535Z,97735.06
2023-01-15T18:15:58.844Z,97724.25
2023-01-15T18:18:44.527Z,97730.88
2023-01-15T18:21:30.533Z,97724.69
2023-01-15T18:24:17.267Z,97726.09
2023-01-15T18:27:03.216Z,97721.28
2023-01-15T18:29:49.150Z,97724.06
2023-01-15T18:32:34.760Z,97724.81
2023-01-15T18:35:20.684Z,97724.81
2023-01-15T18:38:06.976Z,97739.34
2023-01-15T18:40:52.615Z,97725.13
2023-01-15T18:43:57.732Z,97741.81
2023-01-15T18:46:43.836Z,97739.03
2023-01-15T18:49:30.613Z,97738.59
2023-01-15T18:52:35.094Z,97741.81
2023-01-15T18:55:28.685Z,97732.41
2023-01-15T18:58:14.627Z,97735.66
2023-01-15T19:01:07.298Z,97718.19
2023-01-15T19:03:53.422Z,97723.75
2023-01-15T19:06:40.620Z,97724.06
2023-01-15T19:09:27.036Z,97720.66
2023-01-15T19:12:13.794Z,97720.06
2023-01-15T19:15:17.851Z,97711.88
2023-01-15T19:18:22.934Z,97722.06
2023-01-15T19:21:09.031Z,97717.56
2023-01-15T19:23:56.206Z,97712.00
2023-01-15T19:26:42.138Z,97709.22
2023-01-15T19:29:28.209Z,97714.66
2023-01-15T19:32:14.685Z,97710.34
2023-01-15T19:35:00.236Z,97703.22
2023-01-15T19:37:46.682Z,97717.56
2023-01-15T19:40:36.576Z,97706.75
2023-01-15T19:43:40.831Z,97714.78
2023-01-15T19:46:47.044Z,97713.56
2023-01-15T19:49:55.245Z,97706.00
2023-01-15T19:52:44.527Z,97697.78
2023-01-15T19:55:32.405Z,97716.19
2023-01-15T19:58:19.115Z,97698.28
2023-01-15T20:01:05.728Z,97700.44
2023-01-15T20:03:51.631Z,97699.38
2023-01-15T20:06:36.889Z,97688.38
2023-01-15T20:09:23.287Z,97694.88
2023-01-15T20:12:29.728Z,97695.81
2023-01-15T20:15:15.487Z,97693.97
2023-01-15T20:18:01.762Z,97684.69
2023-01-15T20:20:47.560Z,97685.19
2023-01-15T20:23:34.914Z,97678.56
2023-01-15T20:26:24.446Z,97673.44
2023-01-15T20:29:09.616Z,97677.63
2023-01-15T20:31:55.099Z,97675.75
2023-01-15T20:34:40.892Z,97667.13
2023-01-15T20:37:26.295Z,97667.91
2023-01-15T20:40:12.376Z,97668.81
2023-01-15T20:43:16.666Z,97676.84
2023-01-15T20:46:15.190Z,97660.66
2023-01-15T20:49:19.035Z,97648.91
2023-01-15T20:52:04.500Z,97650.13
2023-01-15T20:54:50.561Z,97658.19
2023-01-15T20:57:38.347Z,97645.53
2023-01-15T21:00:24.146Z,97644.00
2023-01-15T21:03:11.365Z,97647.69
2023-01-15T21:05:57.927Z,97639.03
2023-01-15T21:08:45.971Z,97637.97
2023-01-15T21:11:31.403Z,97633.16
2023-01-15T21:14:16.572Z,97626.06
2023-01-15T21:17:01.993Z,97635.66
2023-01-15T21:19:47.426Z,97628.25
2023-01-15T21:22:32.956Z,97629.50
2023-01-15T21:25:18.256Z,97626.09
2023-01-15T21:28:03.722Z,97631.34
2023-01-15T21:30:49.095Z,97628.25
2023-01-15T21:33:34.541Z,97631.47
2023-01-15T21:36:20.281Z,97625.16
2023-01-15T21:39:05.625Z,97625.16
2023-01-15T21:42:14.072Z,97635.66
2023-01-15T21:44:59.767Z,97636.59
2023-01-15T21:47:45.316Z,97623.16
2023-01-15T21:50:30.646Z,97627.16
2023-01-15T21:53:15.804Z,97630.38
2023-01-15T21:56:00.895Z,97610.63
2023-01-15T21:58:46.305Z,97615.41
2023-01-15T22:01:31.641Z,97635.31
2023-01-15T22:04:17.032Z,97634.56
2023-01-15T22:07:02.638Z,97629.00
2023-01-15T22:09:48.093Z,97640.88
2023-01-15T22:12:38.187Z,97630.25
2023-01-15T22:15:24.337Z,97626.69
2023-01-15T22:18:09.717Z,97623.91
2023-01-15T22:21:03.889Z,97635.00
2023-01-15T22:23:49.407Z,97625.16
2023-01-15T22:26:35.881Z,97615.25
2023-01-15T22:29:26.510Z,97618.03
2023-01-15T22:32:13.477Z,97622.81
2023-01-15T22:34:59.096Z,97622.06
2023-01-15T22:37:44.184Z,97625.59
2023-01-15T22:40:30.189Z,97624.06
2023-01-15T22:43:15.706Z,97616.50
2023-01-15T22:46:12.414Z,97623.00
2023-01-15T22:48:57.625Z,97615.88
2023-01-15T22:51:43.901Z,97608.00
2023-01-15T22:54:29.158Z,97610.00
2023-01-15T22:57:14.419Z,97610.00
2023-01-15T23:00:00.247Z,97618.81
2023-01-15T23:02:54.444Z,97618.50
2023-01-15T23:05:40.190Z,97607.84
2023-01-15T23:08:26.982Z,97609.06
2023-01-15T23:11:14.896Z,97608.31
2023-01-15T23:14:00.652Z,97602.00
2023-01-15T23:16:46.159Z,97602.00
2023-01-15T23:19:31.503Z,97594.91
2023-01-15T23:22:16.733Z,97595.66
2023-01-15T23:25:02.184Z,97591.66
2023-01-15T23:27:47.448Z,97588.88
2023-01-15T23:30:32.931Z,97584.09
2023-01-15T23:33:18.762Z,97586.09
2023-01-15T23:36:06.957Z,97577.44
2023-01-15T23:38:52.168Z,97573.91
2023-01-15T23:41:56.064Z,97574.66
2023-01-15T23:44:59.932Z,97571.91
2023-01-15T23:47:45.244Z,97587.03
2023-01-15T23:50:30.562Z,97584.72
2023-01-15T23:53:15.638Z,97598.13
2023-01-15T23:56:02.600Z,97589.03
2023-01-15T23:58:47.881Z,97591.34
